Time;durP1;ratioP1;P1;durP2;ratioP2;P2;SDS_P1;SDS_P2;PMS_P1;PMS_P2;Temp;Humidity;BMP_temperature;BMP_pressure;BME280_temperature;BME280_humidity;BME280_pressure;Samples;Min_cycle;Max_cycle;Signal;HPM_P1;HPM_P2
2022/11/11 00:02:03;;;;;;;3.87;3.57;;;;;;;22.12;54.94;98929.88;5084544;28;20223;-31
2022/11/11 00:04:30;;;;;;;4.40;3.90;;;;;;;22.13;54.93;98929.06;5081620;28;20207;-31
2022/11/11 00:06:57;;;;;;;4.70;3.90;;;;;;;;;;5073095;28;20726;-31
2022/11/11 00:09:23;;;;;;;4.60;4.10;;;;;;;22.12;54.94;98924.78;5082907;28;20486;-31
2022/11/11 00:11:50;;;;;;;6.47;3.87;;;;;;;22.13;54.96;98923.94;5079928;28;20224;-31
2022/11/11 00:14:16;;;;;;;4.97;4.03;;;;;;;22.12;54.87;98922.22;5078106;28;20306;-31
2022/11/11 00:25:08;;;;;;;3.87;3.53;;;;;;;22.11;54.81;98923.03;5079462;28;20218;-31
2022/11/11 00:27:36;;;;;;;5.07;4.00;;;;;;;22.11;54.45;98920.47;5079639;28;20208;-31
2022/11/11 00:30:02;;;;;;;4.33;3.93;;;;;;;22.12;54.82;98924.78;5076699;28;20207;-31
2022/11/11 00:32:32;;;;;;;5.03;3.90;;;;;;;22.11;54.78;98923.03;5082212;28;20250;-31
2022/11/11 00:37:45;;;;;;;3.80;3.50;;;;;;;22.11;54.87;98931.56;5079615;28;20200;-31
2022/11/11 00:40:12;;;;;;;4.67;4.10;;;;;;;22.11;54.75;98930.72;5079077;28;20728;-31
2022/11/11 00:42:38;;;;;;;4.33;3.93;;;;;;;22.11;54.75;98936.69;5076472;28;20231;-31
2022/11/11 00:45:06;;;;;;;3.83;3.43;;;;;;;22.11;54.73;98949.47;5079158;28;20577;-31
2022/11/11 00:53:08;;;;;;;4.13;3.73;;;;;;;22.09;54.52;98948.56;5074799;28;20256;-31
2022/11/11 00:55:35;;;;;;;4.40;3.70;;;;;;;;;;5078900;28;20203;-31
2022/11/11 00:58:01;;;;;;;4.37;3.97;;;;;;;22.11;54.69;98964.84;5077852;28;20208;-31
2022/11/11 01:00:27;;;;;;;4.47;4.07;;;;;;;22.12;54.55;98960.63;5080866;28;20215;-31
2022/11/11 01:02:54;;;;;;;4.23;3.83;;;;;;;22.12;54.60;98970.84;5084523;28;20247;-31
2022/11/11 01:05:21;;;;;;;3.80;3.40;;;;;;;22.12;54.77;98963.19;5081641;28;20233;-31
2022/11/11 01:07:49;;;;;;;4.07;3.67;;;;;;;22.10;54.59;98955.41;5083302;28;20210;-31
2022/11/11 01:10:36;;;;;;;3.77;3.43;;;;;;;22.11;54.72;98958.88;5077007;28;20250;-31
2022/11/11 01:13:14;;;;;;;3.90;3.60;;;;;;;22.11;54.54;98954.59;5078726;28;20306;-31
2022/11/11 01:15:41;;;;;;;3.73;3.43;;;;;;;22.12;54.52;98955.50;5080629;28;20199;-31
2022/11/11 01:18:08;;;;;;;4.17;3.77;;;;;;;22.11;54.60;98939.25;5082031;28;20233;-31
2022/11/11 01:20:36;;;;;;;4.00;3.70;;;;;;;22.11;54.59;98935.81;5080696;28;20594;-31
2022/11/11 01:23:04;;;;;;;4.07;3.67;;;;;;;22.12;54.63;98942.69;5079374;28;20697;-31
2022/11/11 01:25:37;;;;;;;4.87;3.80;;;;;;;22.08;54.63;98928.00;5088831;28;20582;-31
2022/11/11 01:28:03;;;;;;;3.53;3.23;;;;;;;22.11;54.70;98923.03;5081587;28;20251;-31
2022/11/11 01:30:30;;;;;;;3.53;3.23;;;;;;;22.11;54.85;98926.44;5084279;28;20663;-31
2022/11/11 01:32:57;;;;;;;4.23;3.83;;;;;;;22.09;54.52;98917.81;5078032;28;20714;-30
2022/11/11 01:35:23;;;;;;;3.60;3.30;;;;;;;22.09;54.49;98922.06;5082156;28;20210;-31
2022/11/11 01:37:50;;;;;;;3.87;3.53;;;;;;;22.11;54.40;98925.59;5082918;28;20200;-31
2022/11/11 01:40:17;;;;;;;3.93;3.60;;;;;;;22.12;54.51;98927.31;5083789;28;20207;-31
2022/11/11 01:42:46;;;;;;;4.00;3.60;;;;;;;22.12;54.47;98932.44;5080472;28;20237;-31
2022/11/11 01:45:50;;;;;;;3.70;3.40;;;;;;;22.11;54.45;98931.56;5084652;28;20208;-31
2022/11/11 01:51:15;;;;;;;4.23;3.83;;;;;;;22.11;54.67;98931.56;5079704;28;20648;-31
2022/11/11 01:53:42;;;;;;;3.53;3.23;;;;;;;22.11;54.64;98930.72;5079365;28;20201;-31
2022/11/11 01:56:09;;;;;;;4.10;3.70;;;;;;;22.03;54.55;98922.66;5067849;28;20670;-31
2022/11/11 01:58:35;;;;;;;4.07;3.67;;;;;;;22.05;54.36;98925.28;5082444;28;20211;-31
2022/11/11 02:01:02;;;;;;;3.77;3.40;;;;;;;22.09;54.57;98937.41;5072680;28;20334;-31
2022/11/11 02:03:29;;;;;;;3.80;3.50;;;;;;;22.10;54.59;98934.03;5073268;28;20232;-31
2022/11/11 02:05:56;;;;;;;3.47;3.17;;;;;;;22.09;54.61;98938.31;5075632;28;20554;-31
2022/11/11 02:08:32;;;;;;;3.83;3.40;;;;;;;22.10;54.65;98928.94;5085148;28;20205;-31
2022/11/11 02:11:09;;;;;;;3.60;3.30;;;;;;;22.07;54.62;98931.34;5080205;28;20286;-31
2022/11/11 02:16:23;;;;;;;3.63;3.23;;;;;;;22.01;54.59;98926.81;5085568;28;20592;-31
2022/11/11 02:18:49;;;;;;;3.73;3.43;;;;;;;22.11;54.36;98951.19;5082036;28;20211;-31
2022/11/11 02:21:22;;;;;;;3.63;3.33;;;;;;;22.11;54.35;98946.06;5085916;28;20220;-31
2022/11/11 02:24:08;;;;;;;4.33;3.93;;;;;;;22.10;54.36;98945.19;5083424;28;21073;-31
2022/11/11 02:26:35;;;;;;;4.30;3.50;;;;;;;22.04;54.35;98932.06;5076837;28;20250;-31
2022/11/11 02:29:02;;;;;;;3.93;3.57;;;;;;;22.10;54.50;98949.41;5069117;28;20563;-31
2022/11/11 02:31:29;;;;;;;3.60;3.30;;;;;;;22.08;54.46;98945.91;5078565;28;20201;-31
2022/11/11 02:33:55;;;;;;;3.20;2.97;;;;;;;;;;5079388;28;20253;-31
2022/11/11 02:36:22;;;;;;;3.63;3.33;;;;;;;22.10;54.30;98954.53;5079540;28;20208;-31
2022/11/11 02:38:48;;;;;;;4.53;3.40;;;;;;;22.10;54.30;98955.41;5081678;28;20200;-31
2022/11/11 02:44:01;;;;;;;3.30;3.00;;;;;;;22.10;54.68;98957.97;5084923;28;20341;-31
2022/11/11 02:46:27;;;;;;;3.60;3.30;;;;;;;22.10;54.46;98962.22;5083835;28;20207;-31
2022/11/11 02:48:54;;;;;;;3.87;3.50;;;;;;;22.10;54.45;98964.78;5078435;28;20269;-31
2022/11/11 02:51:21;;;;;;;3.30;3.00;;;;;;;22.10;54.57;98969.88;5084604;28;20609;-31
2022/11/11 02:53:47;;;;;;;3.70;3.30;;;;;;;22.09;54.48;98970.72;5078466;28;20204;-31
2022/11/11 02:57:05;;;;;;;3.43;3.13;;;;;;;22.10;54.42;98975.00;5077466;28;20298;-31
2022/11/11 02:59:00;;;;;;;3.80;3.50;;;;;;;22.10;54.37;98977.56;5083757;28;20207;-31
2022/11/11 03:01:27;;;;;;;3.30;3.00;;;;;;;22.10;54.56;98973.34;5081300;28;20216;-31
2022/11/11 03:03:53;;;;;;;4.00;3.00;;;;;;;22.10;54.38;98978.47;5076319;28;20208;-31
2022/11/11 03:06:20;;;;;;;3.43;3.13;;;;;;;22.09;54.40;98971.59;5082784;28;20667;-31
2022/11/11 03:08:47;;;;;;;3.50;3.20;;;;;;;22.09;54.17;98973.25;5085308;28;20625;-31
2022/11/11 03:11:14;;;;;;;3.33;3.03;;;;;;;22.10;54.20;98973.34;5080910;28;20785;-31
2022/11/11 03:13:40;;;;;;;3.50;3.20;;;;;;;22.10;54.19;98970.78;5079421;28;20200;-31
2022/11/11 03:17:38;;;;;;;3.70;3.40;;;;;;;22.09;54.44;98965.59;5080192;28;20219;-31
2022/11/11 03:18:54;;;;;;;3.30;3.10;;;;;;;;;;5081020;28;20204;-31
2022/11/11 03:21:20;;;;;;;3.40;3.10;;;;;;;22.08;54.42;98968.97;5081284;28;20250;-31
2022/11/11 03:24:07;;;;;;;3.67;3.37;;;;;;;22.10;54.28;98978.47;5080339;28;20215;-31
2022/11/11 03:26:33;;;;;;;3.47;3.17;;;;;;;22.10;54.92;98981.03;5083926;28;20199;-31
2022/11/11 03:29:00;;;;;;;3.40;3.10;;;;;;;22.06;54.66;98968.00;5078344;28;20204;-31
2022/11/11 03:31:26;;;;;;;3.10;2.87;;;;;;;22.10;54.44;98972.47;5083149;28;20200;-31
2022/11/11 03:33:53;;;;;;;3.57;3.27;;;;;;;22.09;54.25;98978.38;5081229;28;20200;-31
2022/11/11 03:36:19;;;;;;;3.57;3.27;;;;;;;22.10;54.31;98975.00;5078318;28;20699;-31
2022/11/11 03:38:46;;;;;;;3.23;2.93;;;;;;;22.09;54.36;98975.84;5081259;28;20200;-31
2022/11/11 03:41:12;;;;;;;3.40;3.10;;;;;;;22.10;54.23;98977.56;5077816;28;20211;-31
2022/11/11 03:43:39;;;;;;;2.93;2.73;;;;;;;22.04;54.53;98965.34;5083512;28;20693;-31
2022/11/11 03:46:06;;;;;;;3.50;3.20;;;;;;;22.09;54.27;98979.28;5080756;28;20210;-31
2022/11/11 03:48:33;;;;;;;3.10;2.87;;;;;;;22.10;54.28;98985.25;5078625;28;20223;-31
2022/11/11 03:50:59;;;;;;;3.30;3.00;;;;;;;22.10;54.39;98978.47;5079675;28;20204;-31
2022/11/11 03:53:26;;;;;;;3.43;3.13;;;;;;;22.07;54.21;98969.75;5077709;28;20223;-31
2022/11/11 03:55:53;;;;;;;3.00;2.80;;;;;;;22.10;54.17;98970.78;5079323;28;20201;-31
2022/11/11 03:58:19;;;;;;;2.97;2.77;;;;;;;22.10;54.19;98972.47;5078877;28;20212;-31
2022/11/11 04:00:46;;;;;;;3.00;2.80;;;;;;;22.10;54.13;98967.34;5075660;28;20550;-31
2022/11/11 04:11:37;;;;;;;3.10;2.80;;;;;;;22.10;54.37;98975.00;5081378;28;20667;-31
2022/11/11 04:16:52;;;;;;;3.30;3.00;;;;;;;22.08;54.47;98974.94;5055995;28;20208;-31
2022/11/11 04:22:03;;;;;;;2.90;2.70;;;;;;;22.10;54.26;98990.38;5074437;28;20235;-31
2022/11/11 04:27:16;;;;;;;2.77;2.57;;;;;;;22.03;54.41;98978.09;5078336;28;20215;-31
2022/11/11 04:29:43;;;;;;;2.73;2.53;;;;;;;22.09;54.44;98991.19;5075326;28;20206;-31
2022/11/11 04:34:59;;;;;;;2.83;2.63;;;;;;;22.07;54.30;98979.97;5081384;28;20199;-31
2022/11/11 04:37:27;;;;;;;2.90;2.70;;;;;;;22.10;54.09;98982.69;5083332;28;20205;-31
2022/11/11 04:42:38;;;;;;;2.80;2.60;;;;;;;22.01;54.31;98964.31;5083660;28;20612;-31
2022/11/11 04:48:07;;;;;;;2.80;2.60;;;;;;;22.09;54.12;98976.72;5072926;28;20381;-30
2022/11/11 04:50:37;;;;;;;2.70;2.50;;;;;;;22.05;54.32;98973.94;5079775;28;20843;-31
2022/11/11 04:53:06;;;;;;;3.00;2.80;;;;;;;22.09;54.27;98999.75;5080886;28;20215;-31
2022/11/11 04:58:19;;;;;;;2.67;2.47;;;;;;;22.06;54.31;98998.72;5081007;28;20681;-31
2022/11/11 05:00:46;;;;;;;2.90;2.70;;;;;;;22.09;54.15;99007.44;5082902;28;20210;-31
2022/11/11 05:03:15;;;;;;;3.10;2.90;;;;;;;22.08;54.29;99000.53;5079622;28;20686;-31
2022/11/11 05:11:31;;;;;;;3.10;2.80;;;;;;;22.09;54.39;99006.56;5070427;28;20682;-31
2022/11/11 05:22:29;;;;;;;2.67;2.47;;;;;;;22.09;54.11;99024.47;5078678;28;20227;-31
2022/11/11 05:27:40;;;;;;;2.70;2.50;;;;;;;22.09;54.03;99024.47;5080426;28;20200;-32
2022/11/11 05:30:08;;;;;;;2.40;2.20;;;;;;;22.09;54.14;99034.72;5082173;28;20210;-31
2022/11/11 05:32:35;;;;;;;2.70;2.50;;;;;;;22.09;53.97;99040.72;5082284;28;20215;-31
2022/11/11 05:35:02;;;;;;;2.87;2.67;;;;;;;22.09;54.12;99042.41;5081462;28;20496;-31
2022/11/11 05:37:28;;;;;;;2.50;2.30;;;;;;;22.09;54.17;99042.41;5082416;28;20195;-31
2022/11/11 05:39:55;;;;;;;2.77;2.53;;;;;;;22.01;54.10;99034.34;5081569;28;20203;-31
2022/11/11 05:42:21;;;;;;;2.53;2.33;;;;;;;22.10;54.12;99049.28;5082624;28;20720;-31
2022/11/11 05:44:48;;;;;;;2.50;2.30;;;;;;;22.01;54.13;99042.00;5082625;28;20212;-31
2022/11/11 05:47:14;;;;;;;2.70;2.50;;;;;;;22.10;54.19;99052.72;5072812;28;21433;-31
2022/11/11 05:49:41;;;;;;;2.60;2.40;;;;;;;;;;5069405;28;20204;-31
2022/11/11 05:52:11;;;;;;;2.67;2.47;;;;;;;22.10;54.03;99057.84;5068676;28;20606;-31
2022/11/11 05:54:39;;;;;;;2.90;2.70;;;;;;;22.11;54.14;99053.63;5065399;28;20208;-31
2022/11/11 05:57:05;;;;;;;2.47;2.27;;;;;;;22.02;54.04;99050.59;5071580;28;20648;-31
2022/11/11 05:59:32;;;;;;;2.70;2.50;;;;;;;22.12;54.04;99070.72;5076726;28;20196;-32
2022/11/11 06:01:58;;;;;;;2.60;2.40;;;;;;;22.13;54.07;99077.59;5089891;28;20713;-31
2022/11/11 06:04:25;;;;;;;2.67;2.47;;;;;;;22.11;53.93;99082.63;5077566;28;20203;-31
2022/11/11 06:06:51;;;;;;;2.67;2.47;;;;;;;22.12;53.93;99086.97;5078623;28;20203;-31
2022/11/11 06:09:18;;;;;;;3.17;2.67;;;;;;;22.13;53.50;99090.41;5082540;28;20264;-31
2022/11/11 06:11:44;;;;;;;2.97;2.77;;;;;;;22.10;51.55;99077.44;5079390;28;20223;-31
2022/11/11 06:14:11;;;;;;;4.80;3.23;;;;;;;22.12;49.71;99094.66;5082517;28;20210;-31
2022/11/11 06:16:37;;;;;;;3.40;3.10;;;;;;;22.12;48.55;99098.88;5073197;28;20222;-31
2022/11/11 06:19:04;;;;;;;3.47;3.17;;;;;;;22.11;46.74;99094.59;5081875;28;20563;-31
2022/11/11 06:21:42;;;;;;;3.43;3.13;;;;;;;22.10;46.31;99100.47;5079736;28;20197;-31
2022/11/11 06:24:17;;;;;;;3.87;3.47;;;;;;;22.09;45.31;99096.19;5077415;28;20238;-31
2022/11/11 06:26:49;;;;;;;4.03;3.63;;;;;;;;;;5082328;28;20253;-31
2022/11/11 06:29:15;;;;;;;4.20;3.80;;;;;;;22.07;43.88;99095.19;5080802;28;20208;-31
2022/11/11 06:31:44;;;;;;;3.83;3.53;;;;;;;22.01;43.58;99095.78;5081928;28;20229;-31
2022/11/11 06:34:10;;;;;;;5.83;4.50;;;;;;;22.02;43.13;99100.09;5079189;28;20262;-31
2022/11/11 06:36:37;;;;;;;6.60;5.07;;;;;;;22.00;42.66;99096.59;5085179;28;20224;-31
2022/11/11 06:39:04;;;;;;;9.00;5.97;;;;;;;21.98;42.36;99098.19;5080295;28;20283;-31
2022/11/11 06:41:30;;;;;;;8.07;6.30;;;;;;;21.97;42.38;99095.53;5074241;28;20772;-31
2022/11/11 06:43:57;;;;;;;9.00;6.80;;;;;;;21.94;41.86;99096.28;5079930;28;20228;-31
2022/11/11 06:46:24;;;;;;;8.33;6.80;;;;;;;21.92;42.10;99096.97;5078978;28;20215;-31
2022/11/11 06:48:50;;;;;;;9.43;7.37;;;;;;;21.89;41.50;99097.69;5072449;28;20196;-31
2022/11/11 06:51:17;;;;;;;8.17;6.57;;;;;;;21.88;42.53;99108.75;5079605;28;20271;-31
2022/11/11 06:53:44;;;;;;;8.80;6.70;;;;;;;21.88;42.92;99115.53;5082773;28;20196;-31
2022/11/11 06:56:11;;;;;;;7.57;6.23;;;;;;;21.83;43.05;99101.59;5079601;28;20768;-31
2022/11/11 06:58:38;;;;;;;7.50;6.03;;;;;;;21.84;44.31;99108.50;5077574;28;20671;-31
2022/11/11 07:01:05;;;;;;;6.93;6.10;;;;;;;21.84;45.01;99119.59;5085268;28;20218;-31
2022/11/11 07:03:32;;;;;;;8.20;5.83;;;;;;;21.84;45.39;99121.31;5080846;28;20270;-31
2022/11/11 07:06:02;;;;;;;7.33;6.10;;;;;;;21.83;45.63;99122.97;5079995;28;20550;-31
2022/11/11 07:08:29;;;;;;;6.30;5.70;;;;;;;21.83;46.20;99125.53;5086186;28;20245;-31
2022/11/11 07:10:55;;;;;;;6.33;5.60;;;;;;;21.83;46.52;99117.84;5083602;28;20200;-31
2022/11/11 07:13:22;;;;;;;6.03;5.00;;;;;;;21.17;46.84;99004.22;5080137;28;20219;-31
2022/11/11 07:15:48;;;;;;;7.73;4.80;;;;;;;21.83;47.12;99122.06;5081907;28;20204;-31
2022/11/11 07:18:15;;;;;;;8.43;4.60;;;;;;;21.85;47.23;99126.50;5076706;28;20683;-31
2022/11/11 07:20:42;;;;;;;8.03;5.73;;;;;;;21.86;45.76;99137.59;5067795;28;20203;-31
2022/11/11 07:23:08;;;;;;;7.13;6.13;;;;;;;21.86;44.54;99135.03;5069395;28;20223;-31
2022/11/11 07:25:35;;;;;;;7.90;5.70;;;;;;;21.85;44.68;99128.16;5077986;28;20204;-31
2022/11/11 07:28:01;;;;;;;8.50;6.03;;;;;;;21.84;44.89;99129.84;5074948;28;20380;-31
2022/11/11 07:30:28;;;;;;;10.90;5.53;;;;;;;21.84;45.48;99134.97;5076202;28;20211;-31
2022/11/11 07:32:55;;;;;;;8.50;5.67;;;;;;;21.84;45.99;99131.53;5077607;28;20630;-31
2022/11/11 07:35:21;;;;;;;6.33;5.70;;;;;;;21.85;46.11;99133.28;5079394;28;20688;-31
2022/11/11 07:37:48;;;;;;;10.57;5.97;;;;;;;21.85;46.34;99135.84;5077441;28;20204;-31
2022/11/11 07:40:15;;;;;;;21.33;5.30;;;;;;;21.81;46.59;99123.66;5082384;28;20203;-31
2022/11/11 07:42:42;;;;;;;12.53;5.77;;;;;;;21.85;46.78;99130.72;5076076;28;20223;-31
2022/11/11 07:45:09;;;;;;;6.70;5.07;;;;;;;21.86;47.14;99137.59;5083294;28;20204;-31
2022/11/11 07:47:36;;;;;;;7.10;5.37;;;;;;;21.83;47.37;99128.09;5081598;28;20200;-31
2022/11/11 07:50:03;;;;;;;6.63;5.27;;;;;;;21.84;47.65;99128.97;5064623;28;20630;-31
2022/11/11 07:52:36;;;;;;;9.57;5.37;;;;;;;21.82;47.38;99128.00;5067794;28;20290;-31
2022/11/11 07:55:04;;;;;;;7.27;4.83;;;;;;;21.87;47.38;99136.81;5081676;28;20207;-31
2022/11/11 07:57:31;;;;;;;7.13;5.10;;;;;;;21.86;47.76;99124.81;5077609;28;20559;-31
2022/11/11 07:59:57;;;;;;;6.33;5.40;;;;;;;21.89;47.59;99132.66;5077152;28;20207;-31
2022/11/11 08:02:24;;;;;;;7.03;4.90;;;;;;;21.89;48.12;99132.66;5076329;28;20574;-31
2022/11/11 08:04:50;;;;;;;7.93;4.60;;;;;;;21.85;47.76;99134.19;5072068;28;20203;-31
2022/11/11 08:07:21;;;;;;;7.57;4.70;;;;;;;21.90;48.04;99149.78;5078974;28;20562;-31
2022/11/11 08:09:49;;;;;;;6.90;5.50;;;;;;;21.85;47.63;99133.28;5075937;28;20204;-31
2022/11/11 08:15:01;;;;;;;7.40;4.90;;;;;;;21.88;47.62;99143.69;5076866;28;20200;-31
2022/11/11 08:17:37;;;;;;;7.83;4.80;;;;;;;21.90;47.71;99145.53;5078782;28;20690;-31
2022/11/11 08:20:08;;;;;;;6.80;5.10;;;;;;;21.87;48.07;99135.13;5080682;28;20624;-31
2022/11/11 08:22:38;;;;;;;8.20;5.20;;;;;;;21.23;48.26;99013.06;5082755;28;20234;-31
2022/11/11 08:25:06;;;;;;;5.80;5.17;;;;;;;21.89;48.55;99127.53;5076957;28;20207;-31
2022/11/11 08:27:34;;;;;;;5.40;4.90;;;;;;;21.90;48.48;99136.97;5079911;28;20275;-31
2022/11/11 08:30:01;;;;;;;7.67;5.00;;;;;;;21.86;48.49;99132.47;5074263;28;20210;-31
2022/11/11 08:32:27;;;;;;;5.70;4.73;;;;;;;21.91;48.67;99142.19;5081274;28;20227;-31
2022/11/11 08:34:54;;;;;;;6.27;4.70;;;;;;;21.90;48.90;99136.97;5074649;28;20207;-31
2022/11/11 08:37:20;;;;;;;5.43;4.70;;;;;;;21.93;48.91;99147.38;5079181;28;20214;-31
2022/11/11 08:39:47;;;;;;;5.30;4.50;;;;;;;21.93;48.95;99144.81;5080428;28;20207;-31
2022/11/11 08:42:13;;;;;;;6.50;4.30;;;;;;;21.89;49.08;99130.09;5080681;28;20223;-31
2022/11/11 08:44:40;;;;;;;4.80;4.10;;;;;;;21.94;49.39;99141.47;5078651;28;20594;-31
2022/11/11 08:47:06;;;;;;;6.40;4.17;;;;;;;21.93;49.38;99132.88;5074090;28;20204;-31
2022/11/11 08:49:33;;;;;;;5.13;4.63;;;;;;;21.93;49.22;99132.03;5077196;28;20199;-31
2022/11/11 08:52:00;;;;;;;4.80;4.30;;;;;;;21.95;49.38;99123.63;5080283;28;20223;-31
2022/11/11 08:54:26;;;;;;;5.23;4.53;;;;;;;21.96;49.60;99127.94;5082241;28;20192;-31
2022/11/11 08:56:53;;;;;;;4.90;4.40;;;;;;;21.97;49.66;99139.06;5076552;28;20237;-31
2022/11/11 08:59:19;;;;;;;5.40;4.57;;;;;;;21.97;49.42;99151.88;5070471;28;20219;-31
2022/11/11 09:01:46;;;;;;;4.40;4.00;;;;;;;21.98;49.43;99156.16;5080310;28;20223;-31
2022/11/11 09:04:12;;;;;;;4.27;3.87;;;;;;;21.97;49.63;99152.75;5068161;28;20234;-31
2022/11/11 09:06:59;;;;;;;5.10;4.00;;;;;;;21.98;49.44;99157.06;5072012;28;20231;-31
2022/11/11 09:09:25;;;;;;;5.93;4.30;;;;;;;21.98;49.75;99145.94;5073263;28;20196;-31
2022/11/11 09:11:52;;;;;;;4.70;4.30;;;;;;;21.98;49.70;99153.59;5078205;28;20223;-31
2022/11/11 09:14:18;;;;;;;4.60;3.77;;;;;;;21.98;49.63;99148.50;5078353;28;20204;-31
2022/11/11 09:16:45;;;;;;;4.40;4.00;;;;;;;21.92;49.60;99153.28;5078972;28;20871;-31
2022/11/11 09:19:11;;;;;;;5.03;4.40;;;;;;;21.98;49.95;99163.84;5080808;28;20210;-31
2022/11/11 09:21:38;;;;;;;4.37;3.97;;;;;;;21.99;50.17;99169.06;5084999;28;20230;-31
2022/11/11 09:24:05;;;;;;;4.60;4.20;;;;;;;21.98;49.83;99169.88;5081272;28;20679;-31
2022/11/11 09:26:31;;;;;;;5.23;4.03;;;;;;;21.98;49.67;99172.41;5078474;28;20196;-31
2022/11/11 09:28:58;;;;;;;4.57;4.17;;;;;;;21.99;50.08;99174.16;5070202;28;20725;-31
2022/11/11 09:31:24;;;;;;;4.50;3.80;;;;;;;21.93;50.11;99161.03;5080317;28;20200;-32
2022/11/11 09:34:11;;;;;;;4.20;3.80;;;;;;;21.98;49.97;99177.53;5080680;28;20203;-31
2022/11/11 09:36:37;;;;;;;4.43;4.00;;;;;;;21.96;50.34;99171.44;5080984;28;20196;-31
2022/11/11 09:39:04;;;;;;;4.63;3.80;;;;;;;21.93;49.98;99171.28;5079084;28;20204;-31
2022/11/11 09:41:33;;;;;;;4.07;3.60;;;;;;;21.99;50.29;99179.28;5079643;28;20223;-31
2022/11/11 09:44:00;;;;;;;4.43;4.03;;;;;;;21.89;50.24;99153.13;5084708;28;20224;-31
2022/11/11 09:47:14;;;;;;;4.27;3.87;;;;;;;21.94;50.05;99162.84;5073213;28;20214;-31
2022/11/11 09:50:13;;;;;;;4.73;3.93;;;;;;;21.99;50.24;99169.06;5067264;28;20589;-31
2022/11/11 09:53:00;;;;;;;4.00;3.50;;;;;;;22.00;50.43;99167.38;5079834;28;20216;-31
2022/11/11 09:55:35;;;;;;;3.97;3.57;;;;;;;22.00;50.44;99172.50;5079686;28;20206;-31
2022/11/11 09:58:38;;;;;;;4.90;4.00;;;;;;;21.98;50.45;99162.19;5079061;28;20214;-31
2022/11/11 10:01:13;;;;;;;4.73;3.70;;;;;;;21.94;50.46;99162.84;5074598;28;20620;-31
2022/11/11 10:03:46;;;;;;;5.57;3.40;;;;;;;22.00;50.56;99175.06;5076880;28;20916;-31
2022/11/11 10:06:22;;;;;;;3.90;3.60;;;;;;;21.99;50.35;99181.84;5082546;28;20213;-31
2022/11/11 10:09:01;;;;;;;4.17;3.77;;;;;;;21.95;50.32;99173.94;5078559;28;20233;-31
2022/11/11 10:11:37;;;;;;;3.83;3.43;;;;;;;22.00;50.57;99175.06;5069125;28;20249;-32
2022/11/11 10:14:04;;;;;;;4.00;3.60;;;;;;;21.91;50.44;99161.78;5083180;28;20206;-31
2022/11/11 10:16:42;;;;;;;5.87;4.10;;;;;;;21.98;50.45;99180.09;5107126;27;20204;-31
2022/11/11 10:19:18;;;;;;;4.20;3.80;;;;;;;21.99;50.42;99178.44;5073003;28;20238;-31
2022/11/11 10:21:52;;;;;;;4.03;3.63;;;;;;;22.00;50.29;99175.06;5068734;28;20223;-31
2022/11/11 10:24:40;;;;;;;3.73;3.33;;;;;;;21.56;50.21;99101.00;5081287;28;20253;-31
2022/11/11 10:27:17;;;;;;;3.83;3.53;;;;;;;21.96;50.35;99168.03;5076551;28;20203;-31
2022/11/11 10:29:43;;;;;;;4.47;3.70;;;;;;;22.00;50.46;99173.41;5078339;28;20199;-31
2022/11/11 10:32:15;;;;;;;3.97;3.57;;;;;;;22.01;50.52;99181.94;5080959;28;20228;-31
2022/11/11 10:34:41;;;;;;;4.43;4.03;;;;;;;22.01;50.63;99176.81;5075304;28;20203;-31
2022/11/11 10:37:34;;;;;;;3.90;3.50;;;;;;;21.99;50.88;99178.44;5061754;28;20242;-31
2022/11/11 10:40:10;;;;;;;5.23;3.37;;;;;;;22.00;50.89;99173.41;5073636;28;20219;-31
2022/11/11 10:42:36;;;;;;;5.67;3.53;;;;;;;21.99;51.05;99171.63;5078096;28;20709;-31
2022/11/11 10:45:56;;;;;;;3.60;3.30;;;;;;;22.00;51.08;99180.19;5077340;28;20219;-31
2022/11/11 10:48:44;;;;;;;3.77;3.47;;;;;;;21.95;50.89;99174.81;5055863;28;20402;-31
2022/11/11 10:51:11;;;;;;;4.73;3.80;;;;;;;22.01;51.14;99179.38;5046400;28;20213;-31
2022/11/11 10:53:58;;;;;;;5.27;3.40;;;;;;;21.97;50.89;99167.22;5067565;28;20219;-31
2022/11/11 10:56:27;;;;;;;5.33;3.30;;;;;;;22.01;51.00;99176.81;5079085;28;20199;-31
2022/11/11 10:59:10;;;;;;;4.10;3.70;;;;;;;21.95;50.81;99164.59;5078709;28;20475;-31
2022/11/11 11:01:47;;;;;;;4.00;3.60;;;;;;;21.99;50.88;99170.75;5059945;28;20321;-31
2022/11/11 11:04:17;;;;;;;3.50;3.20;;;;;;;22.00;51.24;99173.41;5080585;28;20220;-31
2022/11/11 11:06:45;;;;;;;6.03;3.90;;;;;;;22.04;51.16;99171.84;5060199;28;20207;-31
2022/11/11 11:09:32;;;;;;;4.10;3.63;;;;;;;22.04;51.25;99165.06;5080323;28;20283;-31
2022/11/11 11:12:01;;;;;;;4.03;3.63;;;;;;;21.96;51.10;99150.13;5065956;28;20987;-31
2022/11/11 11:14:31;;;;;;;4.73;4.13;;;;;;;22.04;51.28;99165.06;5049260;28;20196;-31
2022/11/11 11:16:59;;;;;;;3.93;3.53;;;;;;;22.02;51.38;99161.53;5063707;28;20211;-31
2022/11/11 11:19:26;;;;;;;5.33;3.83;;;;;;;22.02;51.38;99164.09;5067586;28;20201;-32
2022/11/11 11:21:57;;;;;;;5.70;4.13;;;;;;;22.02;51.33;99166.66;5075512;28;20223;-31
2022/11/11 11:24:23;;;;;;;4.03;3.73;;;;;;;22.05;51.37;99158.28;5081626;28;20227;-31
2022/11/11 11:26:54;;;;;;;6.13;4.93;;;;;;;22.06;50.52;99154.91;5078291;28;20203;-31
2022/11/11 11:29:29;;;;;;;7.53;5.37;;;;;;;22.06;50.83;99149.78;5078766;28;20200;-31
2022/11/11 11:31:55;;;;;;;5.10;4.50;;;;;;;22.00;50.99;99135.00;5082211;28;20341;-31
2022/11/11 11:34:22;;;;;;;5.20;4.70;;;;;;;22.06;51.00;99148.13;5074648;28;20215;-31
2022/11/11 11:37:01;;;;;;;5.30;4.80;;;;;;;22.07;50.82;99141.28;5059376;28;20463;-31
2022/11/11 11:39:34;;;;;;;7.07;5.10;;;;;;;;;;5071677;28;20203;-31
2022/11/11 11:42:00;;;;;;;5.57;4.97;;;;;;;;;;5073607;28;20325;-31
2022/11/11 11:44:31;;;;;;;4.63;4.23;;;;;;;22.08;50.77;99137.97;5075034;28;20466;-31
2022/11/11 11:47:36;;;;;;;5.77;4.50;;;;;;;22.08;51.06;99137.97;5070469;28;20200;-31
2022/11/11 11:50:13;;;;;;;5.70;4.90;;;;;;;22.08;51.16;99136.25;5060294;28;20208;-31
2022/11/11 11:52:42;;;;;;;6.13;4.83;;;;;;;22.08;51.04;99137.97;5055379;28;20359;-31
2022/11/11 11:55:24;;;;;;;5.27;4.73;;;;;;;22.08;51.09;99140.50;5063374;28;20208;-31
2022/11/11 11:57:51;;;;;;;6.67;4.67;;;;;;;22.09;51.14;99144.81;5070830;28;20677;-31
2022/11/11 12:00:24;;;;;;;5.73;4.40;;;;;;;22.08;51.12;99145.63;5071612;28;20211;-31
2022/11/11 12:02:50;;;;;;;5.57;4.30;;;;;;;;;;5069732;28;20234;-31
2022/11/11 12:05:35;;;;;;;5.50;4.77;;;;;;;22.07;51.28;99151.53;5081038;28;20223;-31
2022/11/11 12:08:20;;;;;;;5.73;4.37;;;;;;;22.07;51.40;99146.41;5032007;28;20321;-31
2022/11/11 12:11:10;;;;;;;4.70;4.20;;;;;;;22.07;51.47;99151.53;5018498;28;20255;-31
2022/11/11 12:14:14;;;;;;;5.43;4.33;;;;;;;22.07;51.52;99148.97;5021508;28;20213;-31
2022/11/11 12:16:45;;;;;;;5.60;4.40;;;;;;;21.98;51.30;99135.69;5026382;28;20213;-31
2022/11/11 12:19:27;;;;;;;5.17;4.67;;;;;;;22.06;51.36;99144.66;5013216;28;20580;-31
2022/11/11 12:22:15;;;;;;;4.53;4.13;;;;;;;22.06;51.37;99142.09;5019096;28;20236;-31
2022/11/11 12:24:54;;;;;;;4.80;4.37;;;;;;;22.06;51.45;99145.56;5016342;28;20225;-31
2022/11/11 12:27:52;;;;;;;4.83;4.33;;;;;;;21.98;51.50;99133.13;5010020;28;20201;-31
2022/11/11 12:30:26;;;;;;;5.17;4.67;;;;;;;22.06;51.40;99135.31;5040575;28;20246;-31
2022/11/11 12:33:16;;;;;;;4.47;4.07;;;;;;;22.03;51.61;99127.47;5010267;28;20228;-31
2022/11/11 12:35:53;;;;;;;4.77;4.27;;;;;;;22.06;51.61;99134.41;5016727;28;20589;-32
2022/11/11 12:38:25;;;;;;;5.30;4.80;;;;;;;22.06;51.64;99131.84;5015193;28;20233;-31
2022/11/11 12:41:27;;;;;;;5.23;4.73;;;;;;;22.03;51.84;99127.47;5024067;28;20627;-31
2022/11/11 12:44:07;;;;;;;5.40;4.80;;;;;;;22.05;51.75;99125.00;5020821;28;20221;-31
2022/11/11 12:46:56;;;;;;;4.00;3.60;;;;;;;22.03;51.71;99126.56;5019348;28;20204;-31
2022/11/11 12:49:47;;;;;;;4.80;4.40;;;;;;;22.03;51.77;99119.78;5002667;28;20205;-32
2022/11/11 12:52:44;;;;;;;5.23;4.20;;;;;;;21.95;51.95;99102.25;5001384;28;20225;-31
2022/11/11 12:55:19;;;;;;;5.50;4.50;;;;;;;22.05;51.89;99127.56;5020262;28;20570;-31
2022/11/11 12:58:02;;;;;;;5.27;4.30;;;;;;;22.04;52.03;99124.09;5025983;28;20198;-31
2022/11/11 13:00:28;;;;;;;4.83;4.33;;;;;;;22.02;51.55;99122.28;5026657;28;20224;-31
2022/11/11 13:03:32;;;;;;;4.47;4.07;;;;;;;22.04;52.05;99118.97;5036160;28;20229;-31
2022/11/11 13:06:26;;;;;;;4.50;4.10;;;;;;;22.04;52.01;99126.66;5020114;28;20562;-31
2022/11/11 13:09:20;;;;;;;5.70;4.30;;;;;;;22.04;52.09;99124.09;5026743;28;20213;-31
2022/11/11 13:12:10;;;;;;;5.27;4.70;;;;;;;22.05;52.15;99127.56;5022553;28;20221;-31